Caledonia, WI (53108)

9:16 AM CDT on July 26, 2016 (GMT -0500)
60th Street | | Change Station

Elev 711 ft 42.83 °N, 87.99 °W | Updated 39 seconds ago

Clear
Clear
92.5 °F
Feels Like 105 °F
N
1.9
Wind Variable Wind from NE
Gusts 3.7 mph

Today
High -- | Low -- °F
--% Chance of Precip.
Yesterday
High -- | Low -- °F
Precip. -- in
Pressure 30.07 in
Visibility 10.0 miles
Clouds Clear
Heat Index 105 °F
Dew Point 76 °F
Humidity 58%
Rainfall 0.00 in
Snow Depth Not available.
5:37 AM 8:18 PM
Waning Gibbous, 54% visible
METAR KRAC 261353Z AUTO 03004KT 10SM CLR 27/18 A3008 RMK AO2 SLP181 T02670178
Pressure 30.07 in
Visibility 10.0 miles
Clouds Clear
Heat Index 105 °F
Dew Point 76 °F
Humidity 58%
Rainfall 0.00 in
Snow Depth Not available.
5:37 AM 8:18 PM
Waning Gibbous, 54% visible
METAR KRAC 261353Z AUTO 03004KT 10SM CLR 27/18 A3008 RMK AO2 SLP181 T02670178

10-Day Weather Forecast

Almanac

Astronomy

Jul. 26, 2016 Rise Set
Actual Time
Civil Twilight
Nautical Twilight
Astronomical Twilight
Moon
Length of Visible Light
Length of Day
Tomorrow will be .
, % of the Moon is Illuminated

Today's Extremes

State Highs State Lows

Community

WunderPhotos

Upload Photos

1,927,590 photos uploaded!

WunderBlog® & News

Nearby

Air Quality

  Air Quality AQ Index Pollutant
Not available.

Snow Depth

Station Depth Elevation

Earthquake Activity

City Distance Mag. Time & Date
Minimum magnitude displayed is 2.5.

Coastal Water Temperatures

Place Temperature

Stations

Nearby Weather Stations

Station Location Temp. Windchill Dew Point Humidity Wind Precip. Elev Updated Type
                   

Watches & Warnings

There are currently no watches in effect.